Time;durP1;ratioP1;P1;durP2;ratioP2;P2;SDS_P1;SDS_P2;PMS_P1;PMS_P2;Temp;Humidity;BMP_temperature;BMP_pressure;BME280_temperature;BME280_humidity;BME280_pressure;Samples;Min_cycle;Max_cycle;Signal;HPM_P1;HPM_P2
2022/09/24 00:00:40;;;;;;;19.92;12.05;;;12.00;99.90;;;;;;5087061;28;20219;-92
2022/09/24 00:03:29;;;;;;;20.65;12.48;;;12.00;99.90;;;;;;5087262;28;20220;-93
2022/09/24 00:06:18;;;;;;;19.45;11.35;;;12.10;99.90;;;;;;5087574;28;20657;-92
2022/09/24 00:09:09;;;;;;;18.92;11.80;;;12.00;99.90;;;;;;5087227;28;21173;-91
2022/09/24 00:11:59;;;;;;;21.77;11.52;;;12.10;99.90;;;;;;5075042;28;20225;-91
2022/09/24 00:14:47;;;;;;;18.52;10.90;;;12.00;99.90;;;;;;5086450;28;20224;-91
2022/09/24 00:17:36;;;;;;;19.52;11.50;;;12.00;99.90;;;;;;5086469;28;20299;-90
2022/09/24 00:20:24;;;;;;;19.75;12.30;;;12.00;99.90;;;;;;5088556;28;20219;-90
2022/09/24 00:23:13;;;;;;;20.58;12.07;;;12.00;99.90;;;;;;5090657;28;20226;-91
2022/09/24 00:29:12;;;;;;;18.83;12.20;;;11.90;99.90;;;;;;5076208;28;20228;-91
2022/09/24 00:32:02;;;;;;;23.42;12.30;;;11.80;99.90;;;;;;5091250;28;20255;-90
2022/09/24 00:34:52;;;;;;;17.55;11.82;;;11.50;99.90;;;;;;5090017;28;20235;-91
2022/09/24 00:37:41;;;;;;;17.27;11.70;;;11.60;99.90;;;;;;5090083;28;20227;-92
2022/09/24 00:40:30;;;;;;;19.63;12.30;;;11.80;99.90;;;;;;5088732;28;20239;-91
2022/09/24 00:43:25;;;;;;;18.95;11.85;;;11.80;99.90;;;;;;5100545;28;20211;-91
2022/09/24 00:46:18;;;;;;;17.70;11.88;;;11.80;99.90;;;;;;5083620;28;20215;-91
2022/09/24 00:49:12;;;;;;;24.08;12.77;;;11.70;99.90;;;;;;5093120;28;20230;-91
2022/09/24 00:52:02;;;;;;;23.27;13.95;;;11.60;99.90;;;;;;5087332;28;20937;-92
2022/09/24 00:54:52;;;;;;;24.77;13.15;;;11.60;99.90;;;;;;5080053;28;20357;-81
2022/09/24 00:57:43;;;;;;;19.90;12.98;;;11.60;99.90;;;;;;5096891;28;20976;-91
2022/09/24 01:00:34;;;;;;;24.45;14.77;;;11.60;99.90;;;;;;5096604;28;20316;-92
2022/09/24 01:03:24;;;;;;;21.38;13.07;;;11.60;99.90;;;;;;5093943;28;20223;-91
2022/09/24 01:06:13;;;;;;;22.33;13.23;;;11.70;99.90;;;;;;5075450;28;21296;-92
2022/09/24 01:09:02;;;;;;;19.08;13.25;;;11.50;99.90;;;;;;5089541;28;20298;-93
2022/09/24 01:11:59;;;;;;;20.15;12.93;;;11.60;99.90;;;;;;5071629;28;20223;-90
2022/09/24 01:15:01;;;;;;;20.23;13.32;;;11.60;99.90;;;;;;5092216;28;21038;-93
2022/09/24 01:17:59;;;;;;;24.08;15.20;;;11.50;99.90;;;;;;5070403;28;20788;-94
2022/09/24 01:21:09;;;;;;;25.67;14.35;;;11.40;99.90;;;;;;5075948;28;20601;-93
2022/09/24 01:24:39;;;;;;;23.83;15.15;;;11.40;99.90;;;;;;5073627;28;20284;-92
2022/09/24 01:27:44;;;;;;;23.95;14.35;;;11.50;99.90;;;;;;5088708;28;20234;-93
2022/09/24 01:30:37;;;;;;;20.30;14.07;;;11.50;99.90;;;;;;5084565;28;20264;-92
2022/09/24 01:33:30;;;;;;;21.35;14.27;;;11.50;99.90;;;;;;5087778;28;20304;-92
2022/09/24 01:36:20;;;;;;;21.50;14.73;;;11.50;99.90;;;;;;5071766;28;20231;-92
2022/09/24 01:39:10;;;;;;;22.55;14.50;;;11.50;99.90;;;;;;5089542;28;21861;-92
2022/09/24 01:41:59;;;;;;;24.55;14.52;;;11.50;99.90;;;;;;5090186;28;20241;-93
2022/09/24 01:44:49;;;;;;;23.92;15.50;;;11.50;99.90;;;;;;5073960;28;20220;-93
2022/09/24 01:47:40;;;;;;;21.60;14.55;;;11.40;99.90;;;;;;5085688;28;20251;-94
2022/09/24 01:50:33;;;;;;;23.05;15.35;;;11.40;99.90;;;;;;5090589;28;20215;-93
2022/09/24 01:53:24;;;;;;;25.13;15.52;;;11.30;99.90;;;;;;5073026;28;20220;-93
2022/09/24 01:56:20;;;;;;;25.50;15.40;;;11.20;99.90;;;;;;5086722;28;20277;-93
2022/09/24 01:59:14;;;;;;;25.42;15.48;;;11.20;99.90;;;;;;5089964;28;20351;-92
2022/09/24 02:02:07;;;;;;;22.50;15.27;;;11.20;99.90;;;;;;5086990;28;20230;-93
2022/09/24 02:05:02;;;;;;;26.60;15.52;;;11.20;99.90;;;;;;5089032;28;20211;-92
2022/09/24 02:07:58;;;;;;;24.75;15.38;;;11.20;99.90;;;;;;5087552;28;20235;-91
2022/09/24 02:10:51;;;;;;;23.85;15.30;;;11.20;99.90;;;;;;5086287;28;20319;-93
2022/09/24 02:13:46;;;;;;;28.40;17.02;;;11.20;99.90;;;;;;5087526;28;20234;-93
2022/09/24 02:16:38;;;;;;;27.73;16.63;;;11.20;99.90;;;;;;5078713;28;20220;-91
2022/09/24 02:19:29;;;;;;;25.38;17.05;;;11.10;99.90;;;;;;5096722;28;20236;-93
2022/09/24 02:22:20;;;;;;;25.45;16.85;;;11.10;99.90;;;;;;5095825;28;20227;-93
2022/09/24 02:25:14;;;;;;;31.50;18.48;;;10.90;99.90;;;;;;5090054;28;20276;-93
2022/09/24 02:28:03;;;;;;;27.58;19.77;;;10.90;99.90;;;;;;5088004;28;20377;-93
2022/09/24 02:30:55;;;;;;;33.80;20.38;;;11.00;99.90;;;;;;5085904;28;20310;-92
2022/09/24 02:36:58;;;;;;;31.45;19.70;;;10.90;99.90;;;;;;5086686;28;20223;-92
2022/09/24 02:39:49;;;;;;;32.15;19.92;;;10.90;99.90;;;;;;5075570;28;20215;-93
2022/09/24 02:42:38;;;;;;;30.80;20.33;;;10.90;99.90;;;;;;5089250;28;20780;-91
2022/09/24 02:45:26;;;;;;;35.47;20.63;;;10.90;99.90;;;;;;5089335;28;20234;-91
2022/09/24 02:48:14;;;;;;;33.42;20.88;;;10.80;99.90;;;;;;5073792;28;20227;-93
2022/09/24 02:51:04;;;;;;;32.55;20.42;;;10.80;99.90;;;;;;5087340;28;20226;-91
2022/09/24 02:53:52;;;;;;;34.40;21.48;;;10.80;99.90;;;;;;5089042;28;20293;-93
2022/09/24 02:56:42;;;;;;;38.05;21.73;;;10.70;99.90;;;;;;5075464;28;21040;-91
2022/09/24 02:59:31;;;;;;;33.53;20.40;;;10.70;99.90;;;;;;5089593;28;20310;-92
2022/09/24 03:02:20;;;;;;;35.45;21.45;;;10.70;99.90;;;;;;5094751;28;20232;-90
2022/09/24 03:05:10;;;;;;;32.22;20.17;;;10.70;99.90;;;;;;5095843;28;20221;-90
2022/09/24 03:07:58;;;;;;;31.98;20.38;;;10.70;99.90;;;;;;5081725;28;20361;-91
2022/09/24 03:10:47;;;;;;;29.42;19.23;;;10.60;99.90;;;;;;5094364;28;20559;-93
2022/09/24 03:13:38;;;;;;;36.05;21.45;;;10.60;99.90;;;;;;5076299;28;20224;-92
2022/09/24 03:16:26;;;;;;;32.97;20.08;;;10.70;99.90;;;;;;5084700;28;20228;-91
2022/09/24 03:19:15;;;;;;;32.25;20.35;;;10.70;99.90;;;;;;5085359;28;20227;-92
2022/09/24 03:22:03;;;;;;;30.30;20.65;;;10.70;99.90;;;;;;5099281;28;20231;-91
2022/09/24 03:24:52;;;;;;;33.08;20.08;;;10.60;99.90;;;;;;5087419;28;21009;-89
2022/09/24 03:27:41;;;;;;;30.77;19.70;;;10.70;99.90;;;;;;5099569;28;20220;-90
2022/09/24 03:33:40;;;;;;;31.60;19.85;;;10.60;99.90;;;;;;5077666;28;20252;-92
2022/09/24 03:36:28;;;;;;;32.63;20.60;;;10.60;99.90;;;;;;5090938;28;20222;-92
2022/09/24 03:39:17;;;;;;;29.85;19.67;;;10.60;99.90;;;;;;5072426;28;20590;-92
2022/09/24 03:42:06;;;;;;;29.23;19.90;;;10.60;99.90;;;;;;5083603;28;20216;-91
2022/09/24 03:44:54;;;;;;;31.30;19.52;;;10.50;99.90;;;;;;5088581;28;20219;-91
2022/09/24 03:47:44;;;;;;;29.52;19.52;;;10.50;99.90;;;;;;5086747;28;20223;-91
2022/09/24 03:50:35;;;;;;;28.05;19.27;;;10.60;99.90;;;;;;5075277;28;20223;-92
2022/09/24 03:53:23;;;;;;;33.15;19.50;;;10.60;99.90;;;;;;5074942;28;20249;-91
2022/09/24 03:56:12;;;;;;;32.22;19.13;;;10.60;99.90;;;;;;5076234;28;20288;-92
2022/09/24 03:59:00;;;;;;;32.25;19.50;;;10.50;99.90;;;;;;5090519;28;20228;-92
2022/09/24 04:01:49;;;;;;;33.40;19.55;;;10.60;99.90;;;;;;5092776;28;20251;-92
2022/09/24 04:04:39;;;;;;;29.08;18.92;;;10.50;99.90;;;;;;5092287;28;20238;-93
2022/09/24 04:07:27;;;;;;;34.15;19.42;;;10.50;99.90;;;;;;5078793;28;20227;-92
2022/09/24 04:10:16;;;;;;;31.42;19.70;;;10.50;99.90;;;;;;5090708;28;20265;-91
2022/09/24 04:13:04;;;;;;;31.75;20.23;;;10.40;99.90;;;;;;5089540;28;20223;-91
2022/09/24 04:15:53;;;;;;;29.00;19.60;;;10.50;99.90;;;;;;5076032;28;20226;-92
2022/09/24 04:18:42;;;;;;;34.53;20.38;;;10.40;99.90;;;;;;5090209;28;20231;-92
2022/09/24 04:21:32;;;;;;;27.00;18.30;;;10.30;99.90;;;;;;5090153;28;20226;-92
2022/09/24 04:24:21;;;;;;;26.52;19.02;;;10.40;99.90;;;;;;5091753;28;20219;-93
2022/09/24 04:27:09;;;;;;;35.35;20.13;;;10.40;99.90;;;;;;5078048;28;20377;-93
2022/09/24 04:29:57;;;;;;;31.85;20.23;;;10.20;99.90;;;;;;5091853;28;20253;-93
2022/09/24 04:32:46;;;;;;;31.50;20.65;;;10.10;99.90;;;;;;5074843;28;20223;-93
2022/09/24 04:35:35;;;;;;;34.03;20.98;;;10.00;99.90;;;;;;5091487;28;20226;-93
2022/09/24 04:38:25;;;;;;;31.05;20.77;;;10.00;99.90;;;;;;5077223;28;20231;-92
2022/09/24 04:41:15;;;;;;;29.10;20.10;;;10.20;99.90;;;;;;5075893;28;20251;-93
2022/09/24 04:44:04;;;;;;;32.00;19.55;;;10.20;99.90;;;;;;5073211;28;20224;-93
2022/09/24 04:46:54;;;;;;;31.05;19.40;;;10.30;99.90;;;;;;5080794;28;20226;-91
2022/09/24 04:49:44;;;;;;;25.50;18.23;;;10.20;99.90;;;;;;5091415;28;20239;-91
2022/09/24 04:52:33;;;;;;;26.73;18.33;;;10.30;99.90;;;;;;5075922;28;20686;-90
2022/09/24 04:55:24;;;;;;;27.52;18.10;;;10.20;99.90;;;;;;5090121;28;20223;-92
2022/09/24 04:58:12;;;;;;;27.33;18.52;;;10.30;99.90;;;;;;5077468;28;20230;-91
2022/09/24 05:01:02;;;;;;;28.95;18.75;;;10.40;99.90;;;;;;5089471;28;20219;-90
2022/09/24 05:03:52;;;;;;;26.30;18.17;;;10.40;99.90;;;;;;5090019;28;20708;-90
2022/09/24 05:06:40;;;;;;;31.63;19.33;;;10.40;99.90;;;;;;5080438;28;20326;-92
2022/09/24 05:09:30;;;;;;;27.40;17.75;;;10.40;99.90;;;;;;5087886;28;20251;-91
2022/09/24 05:12:20;;;;;;;26.35;18.58;;;10.50;99.90;;;;;;5092256;28;20227;-91
2022/09/24 05:15:11;;;;;;;29.73;17.02;;;10.50;99.90;;;;;;5094082;28;20243;-91
2022/09/24 05:17:59;;;;;;;32.65;17.83;;;10.40;99.90;;;;;;5094565;28;21044;-95
2022/09/24 05:20:48;;;;;;;26.58;17.75;;;10.40;99.90;;;;;;5092624;28;20223;-92
2022/09/24 05:23:36;;;;;;;25.02;17.45;;;10.60;99.90;;;;;;5088245;28;20269;-94
2022/09/24 05:29:32;;;;;;;27.55;16.88;;;10.60;99.90;;;;;;5075805;28;20223;-93
2022/09/24 05:32:21;;;;;;;23.58;16.42;;;10.60;99.90;;;;;;5088796;28;20222;-91
2022/09/24 05:35:09;;;;;;;25.17;16.90;;;10.70;99.90;;;;;;5087616;28;20635;-93
2022/09/24 05:37:58;;;;;;;23.35;16.45;;;10.70;99.90;;;;;;5092339;28;20215;-92
2022/09/24 05:40:49;;;;;;;27.33;17.20;;;10.90;99.90;;;;;;5088847;28;20231;-91
2022/09/24 05:43:37;;;;;;;23.65;15.75;;;11.00;99.90;;;;;;5088233;28;20230;-90
2022/09/24 05:46:28;;;;;;;22.50;14.85;;;11.10;99.90;;;;;;5090244;28;20224;-93
2022/09/24 05:49:16;;;;;;;23.20;15.52;;;11.10;99.90;;;;;;5090575;28;20223;-94
2022/09/24 05:52:06;;;;;;;24.27;14.93;;;11.20;99.90;;;;;;5068221;28;20309;-91
2022/09/24 05:54:55;;;;;;;20.83;14.32;;;11.20;99.90;;;;;;5089401;28;20305;-92
2022/09/24 05:57:43;;;;;;;22.10;14.02;;;11.20;99.90;;;;;;5088713;28;20245;-85
2022/09/24 06:00:32;;;;;;;20.83;13.60;;;11.20;99.90;;;;;;5082762;28;20255;-86
2022/09/24 06:03:22;;;;;;;20.30;14.38;;;11.30;99.90;;;;;;5082778;28;20312;-85
2022/09/24 06:06:11;;;;;;;17.67;13.30;;;11.50;99.90;;;;;;5084935;28;20238;-86
2022/09/24 06:08:59;;;;;;;19.23;13.48;;;11.60;99.90;;;;;;5066702;28;20734;-86
2022/09/24 06:11:51;;;;;;;18.92;13.50;;;11.70;99.90;;;;;;5067831;28;20583;-85
2022/09/24 06:14:41;;;;;;;18.23;13.88;;;11.70;99.90;;;;;;5081139;28;20333;-86
2022/09/24 06:17:31;;;;;;;16.95;11.85;;;11.70;99.90;;;;;;5082883;28;20230;-86
2022/09/24 06:20:21;;;;;;;18.35;12.55;;;11.80;99.90;;;;;;5081970;28;20698;-86
2022/09/24 06:23:09;;;;;;;28.58;12.95;;;11.80;99.90;;;;;;5084440;28;20338;-85
2022/09/24 06:25:58;;;;;;;18.38;12.65;;;11.90;99.90;;;;;;5073083;28;20316;-85
2022/09/24 06:28:46;;;;;;;18.52;13.18;;;12.00;99.90;;;;;;5088966;28;20772;-89
2022/09/24 06:31:35;;;;;;;18.00;12.23;;;12.00;99.90;;;;;;5072838;28;20223;-92
2022/09/24 06:34:24;;;;;;;17.67;11.95;;;12.00;99.90;;;;;;5087103;28;20241;-92
2022/09/24 06:37:13;;;;;;;20.42;12.65;;;11.80;99.90;;;;;;5075779;28;20227;-91
2022/09/24 06:40:02;;;;;;;15.98;12.50;;;11.90;99.90;;;;;;5092357;28;20265;-89
2022/09/24 06:42:52;;;;;;;20.05;12.68;;;12.00;99.90;;;;;;5091032;28;20628;-89
2022/09/24 06:45:41;;;;;;;17.45;11.55;;;12.10;99.90;;;;;;5084728;28;20308;-90
2022/09/24 06:48:31;;;;;;;15.07;10.68;;;12.20;99.90;;;;;;5089774;28;20234;-91
2022/09/24 06:51:19;;;;;;;14.82;10.20;;;12.30;99.90;;;;;;5087746;28;20227;-91
2022/09/24 06:54:10;;;;;;;13.27;10.30;;;12.40;99.90;;;;;;5066501;28;20314;-91
2022/09/24 06:56:58;;;;;;;18.48;11.00;;;12.40;99.90;;;;;;5081638;28;20234;-87
2022/09/24 06:59:47;;;;;;;13.32;8.70;;;12.40;99.90;;;;;;5087214;28;20228;-90
2022/09/24 07:02:35;;;;;;;11.95;8.88;;;12.50;99.90;;;;;;5083846;28;20297;-90
2022/09/24 07:05:23;;;;;;;15.82;10.10;;;12.50;99.90;;;;;;5083103;28;20222;-87
2022/09/24 07:08:12;;;;;;;16.42;9.07;;;12.60;99.90;;;;;;5083927;28;20243;-89
2022/09/24 07:11:02;;;;;;;13.20;9.32;;;12.70;99.90;;;;;;5067999;28;20310;-88
2022/09/24 07:13:52;;;;;;;11.98;8.68;;;12.70;99.90;;;;;;5081750;28;20231;-79
2022/09/24 07:16:40;;;;;;;14.43;9.13;;;12.70;99.90;;;;;;5081354;28;20619;-91
2022/09/24 07:19:29;;;;;;;10.68;7.68;;;12.90;99.90;;;;;;5084228;28;20369;-92
2022/09/24 07:22:17;;;;;;;13.80;9.82;;;13.00;99.90;;;;;;5070592;28;20220;-86
2022/09/24 07:25:08;;;;;;;18.15;13.48;;;13.10;99.90;;;;;;5067433;28;20223;-87
2022/09/24 07:28:01;;;;;;;19.95;14.38;;;13.20;99.90;;;;;;5083244;28;20235;-89
2022/09/24 07:30:57;;;;;;;21.27;14.65;;;13.20;99.90;;;;;;5084274;28;20310;-88
2022/09/24 07:33:45;;;;;;;22.23;14.07;;;13.30;99.90;;;;;;5074238;28;21073;-87
2022/09/24 07:36:34;;;;;;;19.73;14.48;;;13.40;99.90;;;;;;5083920;28;20332;-87
2022/09/24 07:39:22;;;;;;;21.85;14.55;;;13.40;99.90;;;;;;5072785;28;20342;-89
2022/09/24 07:42:11;;;;;;;26.33;16.85;;;13.60;99.90;;;;;;5086197;28;20241;-88
2022/09/24 07:45:01;;;;;;;22.35;16.85;;;13.60;99.90;;;;;;5087669;28;20224;-89
2022/09/24 07:47:57;;;;;;;23.30;16.38;;;13.80;99.90;;;;;;5089858;28;20632;-87
2022/09/24 07:50:45;;;;;;;23.20;16.90;;;14.30;99.90;;;;;;5073724;28;20420;-87
2022/09/24 07:53:34;;;;;;;29.63;18.45;;;14.70;99.90;;;;;;5087553;28;20291;-88
2022/09/24 07:56:23;;;;;;;30.40;17.92;;;15.00;99.90;;;;;;5083990;28;20366;-88
2022/09/24 07:59:12;;;;;;;28.02;16.75;;;15.20;99.90;;;;;;5087412;28;21002;-89
2022/09/24 08:02:02;;;;;;;25.77;15.55;;;15.40;99.90;;;;;;5088705;28;20264;-87
2022/09/24 08:04:50;;;;;;;22.50;15.35;;;15.50;99.90;;;;;;5085272;28;20220;-83
2022/09/24 08:07:39;;;;;;;24.65;14.10;;;15.40;99.90;;;;;;5090102;28;20220;-86
2022/09/24 08:10:28;;;;;;;20.63;14.32;;;15.40;99.90;;;;;;5073781;28;20233;-86
2022/09/24 08:13:16;;;;;;;16.17;12.52;;;15.30;99.90;;;;;;5072090;28;21084;-88
2022/09/24 08:16:06;;;;;;;19.27;13.57;;;15.20;99.90;;;;;;5087816;28;20228;-88
2022/09/24 08:18:56;;;;;;;21.45;13.55;;;15.40;99.90;;;;;;5087650;28;20226;-87
2022/09/24 08:21:44;;;;;;;16.75;13.32;;;15.30;99.90;;;;;;5086979;28;20264;-89
2022/09/24 08:24:33;;;;;;;17.33;11.70;;;15.30;99.90;;;;;;5068987;28;20227;-88
2022/09/24 08:27:22;;;;;;;17.60;12.80;;;15.60;99.90;;;;;;5087434;28;20300;-88
2022/09/24 08:30:12;;;;;;;18.13;12.20;;;15.80;99.90;;;;;;5073747;28;20232;-88
2022/09/24 08:33:00;;;;;;;14.77;10.95;;;16.10;99.90;;;;;;5087083;28;20219;-88
2022/09/24 08:35:51;;;;;;;15.25;10.32;;;16.10;99.90;;;;;;5071541;28;20697;-87
2022/09/24 08:38:39;;;;;;;13.73;10.38;;;16.50;99.90;;;;;;5087910;28;20295;-89
2022/09/24 08:41:49;;;;;;;18.30;10.82;;;16.90;99.90;;;;;;5086398;28;20310;-89
2022/09/24 08:47:56;;;;;;;12.05;8.68;;;17.90;99.90;;;;;;5022491;28;20298;-88
2022/09/24 08:50:56;;;;;;;9.20;6.72;;;18.50;99.90;;;;;;5089246;28;20235;-88
2022/09/24 08:53:49;;;;;;;7.03;6.03;;;18.60;99.90;;;;;;5093341;28;20232;-87
2022/09/24 08:56:42;;;;;;;6.65;5.15;;;18.90;99.90;;;;;;5085651;28;20220;-89
2022/09/24 08:59:36;;;;;;;7.25;5.32;;;19.30;99.90;;;;;;5080048;28;20353;-90
2022/09/24 09:02:40;;;;;;;9.68;5.20;;;19.20;99.90;;;;;;5087657;28;20231;-89
2022/09/24 09:05:52;;;;;;;6.78;4.18;;;18.70;99.70;;;;;;5089137;28;20223;-90
2022/09/24 09:08:50;;;;;;;5.53;3.92;;;18.10;98.80;;;;;;5089255;28;20506;-89
2022/09/24 09:11:59;;;;;;;6.53;4.13;;;17.60;99.90;;;;;;5085937;28;20559;-89
2022/09/24 09:14:55;;;;;;;6.85;3.15;;;17.40;99.90;;;;;;5075559;28;20234;-90
2022/09/24 09:17:47;;;;;;;3.70;3.30;;;17.10;98.40;;;;;;5088850;28;20231;-90
2022/09/24 09:20:39;;;;;;;5.47;3.15;;;16.90;99.90;;;;;;5088503;28;20306;-89
2022/09/24 09:23:37;;;;;;;3.83;3.15;;;16.60;99.90;;;;;;5086342;28;20219;-90
2022/09/24 09:26:27;;;;;;;5.03;3.47;;;16.60;99.90;;;;;;5087765;28;20219;-89
2022/09/24 09:29:16;;;;;;;3.72;2.80;;;16.60;99.90;;;;;;5074372;28;20221;-88
2022/09/24 09:32:13;;;;;;;3.72;2.88;;;16.50;99.90;;;;;;5084797;28;20598;-90
2022/09/24 09:35:11;;;;;;;2.88;2.53;;;16.50;99.90;;;;;;5072323;28;20230;-87
2022/09/24 09:38:07;;;;;;;4.55;2.88;;;16.50;99.90;;;;;;5088769;28;20211;-87
2022/09/24 09:41:03;;;;;;;3.10;2.80;;;16.60;98.40;;;;;;5087380;28;20315;-88
2022/09/24 09:43:59;;;;;;;4.28;2.80;;;16.40;99.60;;;;;;5086932;28;20224;-88
2022/09/24 09:46:54;;;;;;;4.70;2.42;;;16.40;98.20;;;;;;5074169;28;20224;-87
2022/09/24 09:49:45;;;;;;;2.67;2.47;;;16.30;98.50;;;;;;5088866;28;20349;-89
2022/09/24 09:52:38;;;;;;;3.33;2.90;;;16.40;99.80;;;;;;5085956;28;20254;-88
2022/09/24 09:55:30;;;;;;;3.95;2.67;;;16.40;99.10;;;;;;5087428;28;20220;-89
2022/09/24 09:58:22;;;;;;;3.05;2.58;;;16.50;99.70;;;;;;5087830;28;20851;-89
2022/09/24 10:01:16;;;;;;;3.60;2.97;;;16.60;99.90;;;;;;5073662;28;20617;-89
2022/09/24 10:04:04;;;;;;;4.20;3.03;;;16.70;97.90;;;;;;5087905;28;20833;-88
2022/09/24 10:07:04;;;;;;;3.45;3.05;;;16.40;98.50;;;;;;5074141;28;20310;-89
2022/09/24 10:10:02;;;;;;;7.25;2.47;;;16.60;98.20;;;;;;5087197;28;20216;-89
2022/09/24 10:12:53;;;;;;;4.07;2.72;;;16.60;96.70;;;;;;5088261;28;20971;-89
2022/09/24 10:15:50;;;;;;;4.80;2.75;;;16.70;96.70;;;;;;5087228;28;20276;-90
2022/09/24 10:18:46;;;;;;;3.55;2.75;;;16.80;97.50;;;;;;5088214;28;20223;-89
2022/09/24 10:21:36;;;;;;;4.05;3.30;;;17.00;98.90;;;;;;5088550;28;20801;-89
2022/09/24 10:24:27;;;;;;;4.80;3.15;;;17.00;96.80;;;;;;5087163;28;20344;-89
2022/09/24 10:27:23;;;;;;;6.78;3.60;;;16.90;95.90;;;;;;5072248;28;20304;-88
2022/09/24 10:30:32;;;;;;;5.63;3.40;;;16.80;96.10;;;;;;5085786;28;20272;-88
2022/09/24 10:33:21;;;;;;;6.78;2.92;;;16.80;96.50;;;;;;5085249;28;20215;-88
2022/09/24 10:36:16;;;;;;;6.55;4.90;;;16.90;96.20;;;;;;5086487;28;20318;-89
2022/09/24 10:39:12;;;;;;;7.20;3.67;;;16.90;95.30;;;;;;5090386;28;20238;-89
2022/09/24 10:42:01;;;;;;;4.65;3.20;;;17.10;98.60;;;;;;5106130;28;20861;-88
2022/09/24 10:44:50;;;;;;;3.78;3.03;;;17.30;99.20;;;;;;5106746;28;20237;-88
2022/09/24 10:47:48;;;;;;;5.07;3.13;;;17.40;97.20;;;;;;5106625;28;20239;-89
2022/09/24 10:50:43;;;;;;;4.95;4.03;;;17.50;97.50;;;;;;5092517;28;20238;-88
2022/09/24 10:53:48;;;;;;;4.75;2.88;;;17.70;99.80;;;;;;5093800;28;20734;-89
2022/09/24 10:56:39;;;;;;;5.75;2.53;;;17.70;96.80;;;;;;5088548;28;20215;-89
2022/09/24 10:59:53;;;;;;;5.10;2.22;;;17.70;94.80;;;;;;5090090;28;20228;-88
2022/09/24 11:03:06;;;;;;;3.67;2.47;;;17.70;94.10;;;;;;5086223;28;20236;-90
2022/09/24 11:06:02;;;;;;;3.97;2.40;;;17.70;95.60;;;;;;5091700;28;20702;-89
2022/09/24 11:09:06;;;;;;;1.75;1.55;;;17.80;95.40;;;;;;5083794;28;20284;-80
2022/09/24 11:12:04;;;;;;;2.22;1.90;;;17.80;92.10;;;;;;5073839;28;20306;-90
2022/09/24 11:15:10;;;;;;;6.57;2.10;;;17.60;93.00;;;;;;5085721;28;20322;-90
2022/09/24 11:18:14;;;;;;;5.97;2.30;;;17.50;94.40;;;;;;5091112;28;20278;-89
2022/09/24 11:21:13;;;;;;;2.50;2.30;;;17.60;94.10;;;;;;5092936;28;20575;-89
2022/09/24 11:24:19;;;;;;;4.05;1.90;;;17.50;93.30;;;;;;5088535;28;20291;-88
2022/09/24 11:27:31;;;;;;;2.50;1.73;;;17.30;92.90;;;;;;5088570;28;20289;-89
2022/09/24 11:30:23;;;;;;;2.08;1.50;;;17.30;92.80;;;;;;5084228;28;20250;-89
2022/09/24 11:33:25;;;;;;;1.63;1.52;;;17.30;93.30;;;;;;5087429;28;20296;-89
2022/09/24 11:36:27;;;;;;;2.88;1.98;;;17.30;94.90;;;;;;5071008;28;20228;-89
2022/09/24 11:39:32;;;;;;;2.05;1.80;;;17.20;97.10;;;;;;5086486;28;20280;-89
2022/09/24 11:42:24;;;;;;;4.57;2.03;;;17.20;94.60;;;;;;5090617;28;20593;-89
2022/09/24 11:45:42;;;;;;;4.25;1.95;;;17.10;95.20;;;;;;5088592;28;20360;-88
2022/09/24 11:48:49;;;;;;;4.55;3.10;;;17.10;96.20;;;;;;5085579;28;20227;-89
2022/09/24 11:51:50;;;;;;;2.85;1.90;;;17.10;95.00;;;;;;5087648;28;20220;-88
2022/09/24 11:54:45;;;;;;;5.43;2.22;;;17.00;96.20;;;;;;5087205;28;20227;-89
2022/09/24 11:57:39;;;;;;;3.30;2.35;;;17.10;96.10;;;;;;5085708;28;20265;-88
2022/09/24 12:00:36;;;;;;;3.33;2.20;;;17.10;93.80;;;;;;5070159;28;20742;-89
2022/09/24 12:03:35;;;;;;;2.22;1.52;;;17.10;93.90;;;;;;5084375;28;20402;-89
2022/09/24 12:06:30;;;;;;;2.38;1.95;;;17.20;94.20;;;;;;5085038;28;20219;-89
2022/09/24 12:09:24;;;;;;;2.47;1.70;;;17.30;95.50;;;;;;5084212;28;20223;-89
2022/09/24 12:12:18;;;;;;;3.08;1.60;;;17.40;94.40;;;;;;5088283;28;20346;-88
2022/09/24 12:15:17;;;;;;;2.55;1.50;;;17.40;94.20;;;;;;5082768;28;20212;-89
2022/09/24 12:18:11;;;;;;;2.70;1.60;;;17.40;91.70;;;;;;5089516;28;20265;-87
2022/09/24 12:21:06;;;;;;;3.08;1.70;;;17.40;90.60;;;;;;5084307;28;20292;-89
2022/09/24 12:23:59;;;;;;;2.35;1.65;;;17.30;90.60;;;;;;5090804;28;20307;-87
2022/09/24 12:26:54;;;;;;;2.45;1.60;;;17.20;91.80;;;;;;5089869;28;20224;-87
2022/09/24 12:33:02;;;;;;;2.90;1.58;;;17.00;90.10;;;;;;5085868;28;20337;-87
2022/09/24 12:36:03;;;;;;;2.40;1.50;;;16.90;90.90;;;;;;5089994;28;20267;-81
2022/09/24 12:38:55;;;;;;;2.03;1.60;;;16.80;91.10;;;;;;5093695;28;20314;-87
2022/09/24 12:41:47;;;;;;;3.25;1.85;;;16.90;91.60;;;;;;5090141;28;20227;-87
2022/09/24 12:44:43;;;;;;;3.38;1.80;;;16.90;91.90;;;;;;5091574;28;20243;-88
2022/09/24 12:47:48;;;;;;;2.95;1.77;;;16.80;91.80;;;;;;5089334;28;20276;-87
2022/09/24 12:50:39;;;;;;;2.63;1.73;;;16.70;94.10;;;;;;5082567;28;20227;-87
2022/09/24 12:53:34;;;;;;;2.58;1.90;;;16.70;93.50;;;;;;5096619;28;20300;-88
2022/09/24 12:56:26;;;;;;;2.10;1.90;;;16.60;93.00;;;;;;5082356;28;20219;-89
2022/09/24 12:59:25;;;;;;;4.78;1.92;;;16.70;97.50;;;;;;5085183;28;20224;-87
2022/09/24 13:02:17;;;;;;;1.88;1.58;;;16.80;96.40;;;;;;5102598;28;20227;-87
2022/09/24 13:05:18;;;;;;;1.70;1.55;;;16.70;92.60;;;;;;5085648;28;20780;-88
2022/09/24 13:08:24;;;;;;;2.63;1.60;;;16.70;92.00;;;;;;5088557;28;20282;-86
2022/09/24 13:11:28;;;;;;;2.13;1.55;;;16.80;92.50;;;;;;5091305;28;20310;-88
2022/09/24 13:14:20;;;;;;;2.35;1.85;;;16.80;92.10;;;;;;5091123;28;20226;-87
2022/09/24 13:17:14;;;;;;;2.72;1.60;;;16.90;95.50;;;;;;5095648;28;21390;-87
2022/09/24 13:20:07;;;;;;;2.38;1.90;;;16.80;91.90;;;;;;5100105;28;20654;-88
2022/09/24 13:22:58;;;;;;;4.00;1.73;;;16.70;91.90;;;;;;5086290;28;20710;-87
2022/09/24 13:25:55;;;;;;;3.17;2.03;;;16.80;92.90;;;;;;5088253;28;20219;-87
2022/09/24 13:28:54;;;;;;;2.92;2.17;;;16.70;92.60;;;;;;5084746;28;20962;-87
2022/09/24 13:31:48;;;;;;;6.57;2.55;;;16.70;92.40;;;;;;5072954;28;20393;-87
2022/09/24 13:34:36;;;;;;;3.30;1.67;;;16.80;93.90;;;;;;5087605;28;20223;-86
2022/09/24 13:37:32;;;;;;;2.10;1.80;;;16.80;92.20;;;;;;5088035;28;20227;-88
2022/09/24 13:40:25;;;;;;;3.92;2.15;;;16.70;92.30;;;;;;5089459;28;20302;-88
2022/09/24 13:43:24;;;;;;;4.90;2.08;;;16.80;92.50;;;;;;5087853;28;20310;-88
2022/09/24 13:46:16;;;;;;;3.47;1.83;;;16.70;92.20;;;;;;5086511;28;20302;-88
2022/09/24 13:49:11;;;;;;;2.22;1.80;;;16.70;92.20;;;;;;5082867;28;20223;-88
2022/09/24 13:52:11;;;;;;;3.90;1.90;;;16.70;92.50;;;;;;5087538;28;20238;-88
2022/09/24 13:55:06;;;;;;;2.08;1.77;;;16.70;91.80;;;;;;5086606;28;20223;-88
2022/09/24 13:57:56;;;;;;;5.05;1.80;;;16.60;91.30;;;;;;5086255;28;20325;-88
2022/09/24 14:00:45;;;;;;;4.72;2.15;;;16.60;91.90;;;;;;5087673;28;20219;-88
2022/09/24 14:03:35;;;;;;;2.97;1.70;;;16.60;93.40;;;;;;5086848;28;20237;-88
2022/09/24 14:06:36;;;;;;;4.50;1.98;;;16.70;92.40;;;;;;5087465;28;20284;-87
2022/09/24 14:09:28;;;;;;;4.18;1.70;;;16.70;93.30;;;;;;5084656;28;20231;-87
2022/09/24 14:12:20;;;;;;;2.33;1.50;;;16.70;91.70;;;;;;5072743;28;20264;-88
2022/09/24 14:15:15;;;;;;;4.95;1.90;;;16.60;90.80;;;;;;5083454;28;20596;-88
2022/09/24 14:18:04;;;;;;;3.40;1.92;;;16.70;91.40;;;;;;5087156;28;20314;-87
2022/09/24 14:21:05;;;;;;;3.10;2.08;;;16.70;91.70;;;;;;5087886;28;20227;-88
2022/09/24 14:23:56;;;;;;;3.70;2.10;;;16.70;92.20;;;;;;5073303;28;20223;-87
2022/09/24 14:26:49;;;;;;;2.72;1.90;;;16.60;92.40;;;;;;5087193;28;20232;-87
2022/09/24 14:29:44;;;;;;;3.03;2.00;;;16.60;94.40;;;;;;5084221;28;20706;-87
2022/09/24 14:32:39;;;;;;;4.60;1.83;;;16.60;93.30;;;;;;5084381;28;20266;-88
2022/09/24 14:35:31;;;;;;;3.63;1.92;;;16.60;91.90;;;;;;5088159;28;20223;-89
2022/09/24 14:38:23;;;;;;;2.67;2.20;;;16.60;92.30;;;;;;5087274;28;20223;-88
2022/09/24 14:41:18;;;;;;;1.90;1.70;;;16.60;92.00;;;;;;5072185;28;20223;-87
2022/09/24 14:44:15;;;;;;;3.97;1.90;;;16.50;91.80;;;;;;5086767;28;20242;-87
2022/09/24 14:47:04;;;;;;;2.25;1.75;;;16.50;92.10;;;;;;5086046;28;20251;-88
2022/09/24 14:49:54;;;;;;;2.42;1.60;;;16.60;91.50;;;;;;5070433;28;20328;-88
2022/09/24 14:52:43;;;;;;;2.90;2.00;;;16.60;90.50;;;;;;5085211;28;20832;-89
2022/09/24 14:55:39;;;;;;;3.53;2.47;;;16.60;92.00;;;;;;5070323;28;20369;-88
2022/09/24 14:58:36;;;;;;;3.45;2.28;;;16.70;91.60;;;;;;5082165;28;20417;-88
2022/09/24 15:01:29;;;;;;;7.38;2.10;;;16.60;91.30;;;;;;5085975;28;20230;-87
2022/09/24 15:04:25;;;;;;;4.70;2.05;;;16.50;91.70;;;;;;5085799;28;20304;-89